Chippewa, MI

2:15 AM EST on January 22, 2018 (GMT -0500)
Chippewa County International

Weather History for KCIU - June, 2012

Change the Weather History Date:

Saturday, June 2, 2012

  Actual Average Record
Temperature  
Mean Temperature 48 °F -  
Max Temperature 51 °F 65 °F 80 °F (2007)
Min Temperature 46 °F 43 °F 32 °F (1993)
Degree Days  
Heating Degree Days 16    
Moisture  
Dew Point 48 °F    
Average Humidity 99    
Maximum Humidity 100    
Minimum Humidity 93    
Precipitation  
Precipitation 0.49 in - - ()
Sea Level Pressure  
Sea Level Pressure 29.41 in    
Wind  
Wind Speed 13 mph (WNW)    
Max Wind Speed 16 mph    
Max Gust Speed 26 mph    
Visibility 5 miles    
Events      
Averages and records for this station are not official NWS values.
T = Trace of Precipitation, MM = Missing Value Source: NWS Daily Summary

Daily Weather History Graph

Daily Weather History Graph

Search for Another Location

Airport or City:

Trip Planner

Search our weather history database for the weather conditions in past years. The results will help you decide how hot, cold, wet, or windy it might be!

Date:

Astronomy

Jun. 02, 2012 Rise Set
Actual Time 5:48 AM EDT 9:23 PM EDT
Civil Twilight 5:11 AM EDT 10:01 PM EDT
Nautical Twilight 4:20 AM EDT 10:51 PM EDT
Astronomical Twilight 3:13 AM EDT 11:59 PM EDT
Moon 7:34 PM EDT (6/2) 4:12 AM EDT (6/2)
Length of Visible Light 16h 50m
Length of Day
15h 34m
Waxing Gibbous, 95% of the Moon is Illuminated
Jun 2
Waxing Gibbous
Jun 4
Full
Jun 11
Last Quarter
Jun 19
New
Jun 26
First Quarter

Hourly Weather History & Observations

Time (EDT) Temp. Windchill Dew Point Humidity Pressure Visibility Wind Dir Wind Speed Gust Speed Precip Events Conditions
12:15 AM 48.2 °F - 46.4 °F 93% 29.52 in 9.0 mi NNW 13.8 mph 19.6 mph 0.04 in   Overcast
12:35 AM 48.2 °F - 48.2 °F 100% 29.51 in 10.0 mi NNW 12.7 mph - 0.10 in   Overcast
12:55 AM 46.4 °F 40.1 °F 46.4 °F 100% 29.49 in 10.0 mi NNW 15.0 mph - N/A   Overcast
1:15 AM 46.4 °F 40.1 °F 46.4 °F 100% 29.48 in 10.0 mi NW 15.0 mph 20.7 mph 0.05 in   Overcast
1:35 AM 46.4 °F 40.1 °F 46.4 °F 100% 29.46 in 10.0 mi NNW 15.0 mph 21.9 mph 0.07 in   Overcast
1:55 AM 46.4 °F 40.4 °F 46.4 °F 100% 29.44 in 10.0 mi NW 13.8 mph 21.9 mph 0.09 in   Overcast
2:15 AM 46.4 °F 39.8 °F 46.4 °F 100% 29.43 in 10.0 mi NW 16.1 mph - 0.03 in   Overcast
2:35 AM 46.4 °F 40.4 °F 44.6 °F 93% 29.42 in 10.0 mi NW 13.8 mph 26.5 mph 0.04 in   Overcast
2:55 AM 46.4 °F 40.1 °F 46.4 °F 100% 29.40 in 10.0 mi NW 15.0 mph 21.9 mph 0.05 in   Overcast
3:15 AM 46.4 °F 39.8 °F 46.4 °F 100% 29.39 in 5.0 mi NW 16.1 mph 23.0 mph 0.01 in   Overcast
3:35 AM 46.4 °F 40.1 °F 46.4 °F 100% 29.38 in 10.0 mi NW 15.0 mph 24.2 mph 0.01 in   Overcast
3:55 AM 46.4 °F 40.4 °F 46.4 °F 100% 29.38 in 10.0 mi NW 13.8 mph 21.9 mph 0.01 in   Overcast
4:15 AM 46.4 °F 39.8 °F 46.4 °F 100% 29.37 in 4.0 mi NW 16.1 mph 21.9 mph 0.03 in   Overcast
4:35 AM 46.4 °F 40.7 °F 46.4 °F 100% 29.37 in 5.0 mi NW 12.7 mph - 0.05 in   Overcast
4:55 AM 48.2 °F - 46.4 °F 93% 29.36 in 7.0 mi NW 13.8 mph 21.9 mph 0.06 in   Overcast
5:15 AM 48.2 °F - 46.4 °F 93% 29.36 in 5.0 mi NW 15.0 mph 20.7 mph 0.01 in   Overcast
5:35 AM 48.2 °F - 46.4 °F 93% 29.35 in 6.0 mi NW 12.7 mph - 0.02 in   Overcast
5:55 AM 48.2 °F - 48.2 °F 100% 29.34 in 4.0 mi NW 13.8 mph 20.7 mph 0.03 in   Overcast
6:15 AM 48.2 °F - 48.2 °F 100% 29.34 in 5.0 mi NW 13.8 mph 20.7 mph 0.01 in   Overcast
6:35 AM 48.2 °F - 46.4 °F 93% 29.34 in 7.0 mi NW 16.1 mph 20.7 mph 0.01 in   Overcast
6:55 AM 48.2 °F - 48.2 °F 100% 29.34 in 3.0 mi NW 16.1 mph 25.3 mph 0.01 in   Overcast
7:15 AM 48.2 °F - 48.2 °F 100% 29.34 in 5.0 mi NW 13.8 mph - N/A   Overcast
7:35 AM 48.2 °F - 48.2 °F 100% 29.34 in 9.0 mi NW 15.0 mph 18.4 mph N/A   Overcast
7:55 AM 48.2 °F - 48.2 °F 100% 29.34 in 6.0 mi WNW 12.7 mph - N/A   Overcast
8:15 AM 48.2 °F - 48.2 °F 100% 29.34 in 5.0 mi NW 12.7 mph 19.6 mph N/A   Overcast
8:35 AM 48.2 °F - 48.2 °F 100% 29.34 in 1.8 mi NW 12.7 mph 21.9 mph 0.01 in   Overcast
8:55 AM 48.2 °F - 48.2 °F 100% 29.34 in 1.8 mi NW 16.1 mph 26.5 mph N/A   Overcast
9:15 AM 48.2 °F - 48.2 °F 100% 29.35 in 6.0 mi WNW 15.0 mph 20.7 mph N/A   Overcast
9:35 AM 48.2 °F - 48.2 °F 100% 29.35 in 7.0 mi WNW 13.8 mph 20.7 mph N/A   Overcast
9:55 AM 48.2 °F - 48.2 °F 100% 29.35 in 3.0 mi WNW 13.8 mph 23.0 mph N/A   Overcast
10:15 AM 48.2 °F - 48.2 °F 100% 29.35 in 4.0 mi WNW 13.8 mph 21.9 mph N/A   Overcast
10:35 AM 48.2 °F - 48.2 °F 100% 29.35 in 2.0 mi WNW 16.1 mph 23.0 mph N/A   Overcast
10:55 AM 48.2 °F - 48.2 °F 100% 29.36 in 2.5 mi WNW 15.0 mph 21.9 mph 0.01 in   Overcast
11:15 AM 46.4 °F 41.5 °F 46.4 °F 100% 29.37 in 2.0 mi West 10.4 mph 19.6 mph N/A   Overcast
11:35 AM 46.4 °F 41.5 °F 46.4 °F 100% 29.37 in 2.5 mi West 10.4 mph - N/A   Overcast
11:55 AM 46.4 °F 41.5 °F 46.4 °F 100% 29.38 in 4.0 mi West 10.4 mph - N/A   Overcast
12:15 PM 46.4 °F 41.5 °F 46.4 °F 100% 29.38 in 4.0 mi West 10.4 mph - 0.01 in   Overcast
12:35 PM 46.4 °F 41.5 °F 44.6 °F 93% 29.38 in 5.0 mi WSW 10.4 mph - 0.03 in   Overcast
12:55 PM 46.4 °F 42.4 °F 46.4 °F 100% 29.38 in 7.0 mi WSW 8.1 mph 17.3 mph 0.07 in   Overcast
1:15 PM 48.2 °F - 48.2 °F 100% 29.39 in 5.0 mi WSW 10.4 mph - N/A   Overcast
1:35 PM 48.2 °F - 48.2 °F 100% 29.39 in 2.5 mi West 11.5 mph - 0.01 in   Overcast
1:55 PM 48.2 °F - 46.4 °F 93% 29.39 in 2.0 mi West 8.1 mph 16.1 mph 0.01 in   Overcast
2:15 PM 50.0 °F - 50.0 °F 100% 29.40 in 7.0 mi WSW 10.4 mph - N/A   Overcast
2:35 PM 50.0 °F - 50.0 °F 100% 29.40 in 9.0 mi West 10.4 mph 17.3 mph N/A   Overcast
2:55 PM 50.0 °F - 50.0 °F 100% 29.40 in 3.0 mi West 11.5 mph 18.4 mph N/A   Overcast
3:15 PM 50.0 °F - 50.0 °F 100% 29.41 in 2.5 mi West 11.5 mph - N/A   Overcast
3:35 PM 51.8 °F - 50.0 °F 94% 29.41 in 2.5 mi West 10.4 mph - 0.02 in   Overcast
3:55 PM 50.0 °F - 50.0 °F 100% 29.42 in 8.0 mi West 12.7 mph - 0.04 in   Overcast
4:15 PM 50.0 °F - 50.0 °F 100% 29.42 in 1.5 mi West 10.4 mph - 0.01 in   Overcast
4:35 PM 50.0 °F - 50.0 °F 100% 29.43 in 3.0 mi West 15.0 mph 19.6 mph 0.03 in   Overcast
4:55 PM 50.0 °F - 48.2 °F 94% 29.44 in 1.8 mi West 11.5 mph - 0.03 in   Overcast
5:15 PM 50.0 °F - 50.0 °F 100% 29.44 in 3.0 mi West 9.2 mph - 0.01 in   Overcast
5:35 PM 50.0 °F - 48.2 °F 94% 29.44 in 7.0 mi West 11.5 mph - 0.01 in   Overcast
5:55 PM 50.0 °F - 48.2 °F 94% 29.45 in 1.8 mi West 11.5 mph 16.1 mph 0.01 in   Overcast
6:15 PM 50.0 °F - 50.0 °F 100% 29.45 in 1.2 mi West 12.7 mph - N/A   Overcast
6:35 PM 50.0 °F - 50.0 °F 100% 29.45 in 1.5 mi West 9.2 mph - 0.01 in   Overcast
6:55 PM 50.0 °F - 50.0 °F 100% 29.46 in 2.0 mi West 9.2 mph - 0.01 in   Overcast
7:15 PM 50.0 °F - 50.0 °F 100% 29.46 in 1.8 mi West 12.7 mph 18.4 mph N/A   Overcast
7:35 PM 50.0 °F - 50.0 °F 100% 29.46 in 2.0 mi West 13.8 mph - N/A   Overcast
7:55 PM 50.0 °F - 50.0 °F 100% 29.47 in 2.5 mi West 9.2 mph - N/A   Overcast
8:15 PM 50.0 °F - 50.0 °F 100% 29.48 in 5.0 mi WNW 10.4 mph - 0.01 in   Overcast
8:35 PM 50.0 °F - 50.0 °F 100% 29.48 in 10.0 mi WNW 9.2 mph - 0.01 in   Overcast
8:55 PM 50.0 °F - 50.0 °F 100% 29.49 in 3.0 mi WNW 9.2 mph - 0.01 in   Overcast
9:15 PM 50.0 °F - 50.0 °F 100% 29.49 in 5.0 mi West 10.4 mph - N/A   Overcast
9:35 PM 50.0 °F - 50.0 °F 100% 29.50 in 5.0 mi West 9.2 mph - 0.01 in   Overcast
9:55 PM 50.0 °F - 50.0 °F 100% 29.50 in 8.0 mi West 8.1 mph - 0.01 in   Overcast
10:15 PM 50.0 °F - 50.0 °F 100% 29.51 in 5.0 mi West 5.8 mph - N/A   Overcast
10:35 PM 50.0 °F - 50.0 °F 100% 29.51 in 10.0 mi West 6.9 mph - N/A   Overcast
10:55 PM 50.0 °F - 50.0 °F 100% 29.51 in 4.0 mi West 8.1 mph - 0.01 in   Overcast
11:15 PM 50.0 °F - 50.0 °F 100% 29.51 in 10.0 mi West 6.9 mph - 0.01 in   Overcast
11:35 PM 50.0 °F - 50.0 °F 100% 29.51 in 10.0 mi West 8.1 mph - 0.01 in   Overcast
11:55 PM 50.0 °F - 50.0 °F 100% 29.52 in 9.0 mi West 8.1 mph - 0.02 in   Overcast